• Join FlightAware (Why Join?)
  • Login
  • US Flag GB Flag 
10:24 EDT


 

Airport Tracker/Info


-or-


 

Live Flight TrackerFlight Track Log ✈ N449ND ✈ 11-Jan-2014 ✈ X61 - KFPR

Flight Track Log - Related Links

Times and Time Zones

All times are in EST time to prevent confusion due to time zone crossing. See the N449ND flight status page for this flight to view local times or setup timezone preferences in your user account.

Time Position Orientation Groundspeed Altitude Reporting Facility
EST Latitude Longitude Course Direction KTS MPH feet Rate Location/Type
18:41 28.4333 -80.7500 180° South 71 82 2,400  Level Orlando TRACON
18:42 28.4167 -80.7500 180° South 62 71 2,700 120 Climbing Orlando TRACON
18:43 28.4000 -80.7333 139° Southeast 91 105 2,700  Level Orlando TRACON
18:43 28.3833 -80.7333 180° South 83 96 2,700  Level Orlando TRACON
18:44 28.3500 -80.7167 156° South 78 90 2,800  Climbing Orlando TRACON
18:45 28.3333 -80.7167 180° South 86 99 2,800  Level Orlando TRACON
18:46 28.3167 -80.7000 139° Southeast 87 100 2,800  Level Orlando TRACON
18:47 28.2833 -80.6833 156° South 88 101 2,800  Level Orlando TRACON
18:48 28.2667 -80.6833 180° South 84 97 2,800  Level Orlando TRACON
18:51 28.2028 -80.6472 154° Southeast 89 102 2,800  Level Miami Center
18:52 28.1819 -80.6372 157° South 94 108 2,800  Level Miami Center
18:53 28.1592 -80.6339 173° South 86 99 2,800 -60 Level Miami Center
18:54 28.1344 -80.6214 156° South 86 99 2,700 -60 Descending Miami Center
18:55 28.1119 -80.6089 154° Southeast 91 105 2,700  Level Miami Center
18:56 28.0892 -80.5986 158° South 91 105 2,700  Level Miami Center
18:57 28.0686 -80.5911 162° South 91 105 2,700  Level Miami Center
18:58 28.0458 -80.5761 150° Southeast 91 105 2,700  Level Miami Center
18:59 28.0233 -80.5614 150° Southeast 91 105 2,700  Level Miami Center
19:00 28.0006 -80.5511 158° South 91 105 2,700  Level Miami Center
19:01 27.9800 -80.5433 162° South 86 99 2,700  Level Miami Center
19:02 27.9594 -80.5333 157° South 86 99 2,700  Level Miami Center
19:03 27.9347 -80.5208 156° South 86 99 2,700  Level Miami Center
19:04 27.9119 -80.5106 158° South 91 105 2,700  Level Miami Center
19:05 27.8892 -80.5006 159° South 85 98 2,800  Climbing Miami Center
19:06 27.8686 -80.4906 157° South 85 98 2,700  Descending Miami Center
19:07 27.8481 -80.4733 143° Southeast 91 105 2,800  Climbing Miami Center
19:08 27.8236 -80.4586 152° Southeast 91 105 2,800  Level Miami Center
19:09 27.8028 -80.4508 162° South 91 105 2,800  Level Miami Center
19:10 27.7800 -80.4408 159° South 86 99 2,800  Level Miami Center
19:11 27.7594 -80.4306 156° South 91 105 2,900  Climbing Miami Center
19:12 27.7367 -80.4206 159° South 91 105 2,800 -60 Descending Miami Center
19:13 27.7269 -80.3922 111° Southeast 91 105 2,800  Level Miami Center
19:14 27.7153 -80.3614 113° Southeast 119 137 2,900  Climbing Miami Center
19:15 27.6972 -80.3350 128° Southeast 113 130 2,900  Level Miami Center
19:16 27.6786 -80.3203 145° Southeast 105 121 2,900  Level Miami Center
19:17 27.6583 -80.3008 140° Southeast 100 115 3,000  Climbing Miami Center
19:18 27.6422 -80.2722 122° Southeast 95 109 2,900 -120 Descending Miami Center
19:19 27.6261 -80.2461 125° Southeast 101 116 2,800 -60 Descending Miami Center
19:20 27.6081 -80.2197 128° Southeast 107 123 2,800 -60 Level Miami Center
19:21 27.5897 -80.2006 137° Southeast 102 117 2,700 -60 Descending Miami Center
19:22 27.5778 -80.1697 114° Southeast 102 117 2,700  Level Miami Center
19:23 27.5597 -80.1411 125° Southeast 102 117 2,700 -240 Level Miami Center
19:24 27.5431 -80.1358 164° South 75 86 2,300 -300 Descending Miami Center
19:25 27.5242 -80.1378 185° South 68 78 2,100 -60 Descending Miami Center
19:26 27.5033 -80.1442 195° South 73 84 2,200  Climbing Miami Center
19:27 27.4842 -80.1531 202° Southwest 73 84 2,200  Level Miami Center
19:28 27.4633 -80.1569 189° South 73 84 2,200 -60 Level Miami Center
19:29 27.4586 -80.1733 252° West 66 76 2,100 -300 Descending Miami Center
19:30 27.4603 -80.1944 275° West 68 78 1,700 -180 Descending Miami Center
19:31 27.4661 -80.2181 286° West 73 84 1,800  Climbing Miami Center
19:32 27.4717 -80.2439 284° West 78 90 1,800  Level Miami Center
19:33 27.4775 -80.2675 286° West 78 90 1,800 -240 Level Miami Center
19:34 27.4831 -80.2886 287° West 78 90 1,400 -420 Descending Miami Center
19:35 27.4847 -80.3075 276° West 72 83 1,000 -300 Descending Miami Center
19:36 27.4928 -80.3264 296° West 67 77 900 -120 Descending Miami Center